Time;durP1;ratioP1;P1;durP2;ratioP2;P2;SDS_P1;SDS_P2;PMS_P1;PMS_P2;Temp;Humidity;BMP_temperature;BMP_pressure;BME280_temperature;BME280_humidity;BME280_pressure;Samples;Min_cycle;Max_cycle;Signal;HPM_P1;HPM_P2
2022/03/19 00:02:02;;;;;;;13.50;5.57;;;;;;;0.59;46.91;99047.06;5003598;28;20049;-58
2022/03/19 00:04:29;;;;;;;13.32;5.05;;;;;;;0.77;46.71;99079.44;5003006;28;20521;-56
2022/03/19 00:06:56;;;;;;;13.93;5.47;;;;;;;0.90;47.76;99139.00;5003258;28;20050;-60
2022/03/19 00:09:22;;;;;;;12.73;5.00;;;;;;;1.05;47.51;99133.72;5003572;28;20053;-61
2022/03/19 00:11:49;;;;;;;9.48;4.85;;;;;;;0.80;46.68;99076.19;5003694;28;20050;-55
2022/03/19 00:14:16;;;;;;;16.83;5.85;;;;;;;0.97;47.14;99131.47;5017942;28;20065;-62
2022/03/19 00:16:42;;;;;;;20.38;6.90;;;;;;;0.63;48.04;99069.19;5022775;28;20256;-61
2022/03/19 00:19:09;;;;;;;12.27;5.25;;;;;;;-1.40;47.58;98719.75;5021299;28;20423;-61
2022/03/19 00:21:37;;;;;;;15.80;6.18;;;;;;;1.11;47.07;99124.50;5023141;28;20045;-62
2022/03/19 00:24:05;;;;;;;14.90;5.28;;;;;;;0.97;46.91;99127.91;5023140;28;20052;-55
2022/03/19 00:26:33;;;;;;;10.55;4.85;;;;;;;0.43;47.21;99020.72;5022954;28;20049;-60
2022/03/19 00:29:00;;;;;;;10.73;5.15;;;;;;;0.92;47.44;99106.84;5021623;28;20060;-56
2022/03/19 00:31:28;;;;;;;14.02;4.95;;;;;;;0.87;47.69;99131.34;5026253;28;20046;-58
2022/03/19 00:33:56;;;;;;;10.90;4.95;;;;;;;1.08;47.37;99127.75;5026920;28;20057;-62
2022/03/19 00:36:22;;;;;;;13.30;5.60;;;;;;;1.02;46.70;99117.88;5026566;28;20057;-56
2022/03/19 00:38:49;;;;;;;15.63;5.40;;;;;;;1.02;47.17;99112.41;5026333;28;20061;-58
2022/03/19 00:41:16;;;;;;;14.95;5.10;;;;;;;1.00;47.12;99128.22;5026338;28;20053;-55
2022/03/19 00:43:43;;;;;;;11.82;4.95;;;;;;;-1.84;46.99;98643.69;5026140;28;20054;-56
2022/03/19 00:46:11;;;;;;;12.23;5.07;;;;;;;0.38;46.48;99023.38;5026536;28;20081;-55
2022/03/19 00:48:38;;;;;;;9.73;4.40;;;;;;;0.97;47.74;99147.81;5026319;28;20594;-55
2022/03/19 00:51:05;;;;;;;12.25;5.15;;;;;;;0.92;47.25;99116.94;5026787;28;20071;-61
2022/03/19 00:53:32;;;;;;;10.30;5.05;;;;;;;0.87;47.63;99117.69;5026108;28;20536;-58
2022/03/19 00:55:59;;;;;;;13.05;5.85;;;;;;;0.88;47.95;99110.34;5026049;28;20048;-55
2022/03/19 00:58:25;;;;;;;11.82;5.43;;;;;;;0.72;47.90;99079.38;5026106;28;20053;-56
2022/03/19 01:00:52;;;;;;;14.70;7.03;;;;;;;0.94;47.54;99121.06;5025639;28;20049;-59
2022/03/19 01:03:19;;;;;;;16.92;5.63;;;;;;;0.83;47.34;99108.41;5026185;28;20049;-55
2022/03/19 01:05:46;;;;;;;15.13;5.65;;;;;;;0.89;47.31;99110.09;5025850;28;20522;-56
2022/03/19 01:08:13;;;;;;;13.45;5.88;;;;;;;0.79;47.48;99118.16;5026048;28;20045;-62
2022/03/19 01:10:40;;;;;;;11.88;5.32;;;;;;;0.77;47.97;99114.91;5026464;28;20061;-55
2022/03/19 01:13:07;;;;;;;10.50;5.22;;;;;;;0.82;47.33;99116.84;5021395;28;20046;-61
2022/03/19 01:15:34;;;;;;;12.60;4.80;;;;;;;0.25;46.96;99031.97;5004689;28;20509;-54
2022/03/19 01:18:02;;;;;;;14.40;5.50;;;;;;;0.39;47.05;99027.78;5006522;28;20068;-60
2022/03/19 01:20:30;;;;;;;13.13;5.72;;;;;;;0.97;47.36;99109.63;5006141;28;20054;-61
2022/03/19 01:22:57;;;;;;;14.15;5.88;;;;;;;0.91;47.19;99113.41;5006090;28;20054;-61
2022/03/19 01:25:24;;;;;;;12.45;4.75;;;;;;;0.20;47.93;99063.78;5006148;28;20385;-55
2022/03/19 01:27:51;;;;;;;14.25;5.22;;;;;;;0.44;47.91;99071.44;5005437;28;20058;-61
2022/03/19 01:30:21;;;;;;;15.85;6.00;;;;;;;0.68;48.37;99104.69;5005824;28;20080;-61
2022/03/19 01:32:49;;;;;;;15.35;5.40;;;;;;;0.44;49.02;99114.22;5006140;28;20060;-55
2022/03/19 01:35:18;;;;;;;6.82;3.42;;;;;;;0.21;48.63;99093.50;5020840;28;20058;-61
2022/03/19 01:37:45;;;;;;;11.60;5.25;;;;;;;-0.34;49.77;99035.59;5005684;28;20057;-61
2022/03/19 01:40:13;;;;;;;11.88;5.40;;;;;;;0.26;49.07;99098.19;5005606;28;20069;-61
2022/03/19 01:42:46;;;;;;;11.82;5.35;;;;;;;-0.23;49.87;99029.19;5005171;28;20057;-57
2022/03/19 01:45:23;;;;;;;11.00;4.77;;;;;;;0.41;48.71;99092.94;5005561;28;20056;-57
2022/03/19 01:47:50;;;;;;;11.57;5.38;;;;;;;0.44;49.22;99093.25;5005109;28;20053;-62
2022/03/19 01:50:19;;;;;;;9.75;4.00;;;;;;;0.15;49.69;99088.25;5005160;28;20076;-61
2022/03/19 01:52:46;;;;;;;10.60;5.07;;;;;;;0.11;50.00;99093.41;5005406;28;20096;-62
2022/03/19 01:55:15;;;;;;;10.95;4.82;;;;;;;0.05;50.46;99094.38;5005705;28;20580;-62
2022/03/19 01:57:44;;;;;;;15.98;5.70;;;;;;;-0.61;49.97;98985.66;5006239;28;20053;-55
2022/03/19 02:00:16;;;;;;;9.13;4.70;;;;;;;0.00;50.37;99099.78;5005125;28;20062;-61
2022/03/19 02:02:44;;;;;;;13.57;5.70;;;;;;;0.10;50.39;99086.28;5005449;28;20422;-58
2022/03/19 02:05:14;;;;;;;17.08;6.25;;;;;;;-0.01;51.17;99098.13;5005100;28;20132;-61
2022/03/19 02:07:45;;;;;;;12.30;5.38;;;;;;;-0.41;51.12;99045.84;5020038;28;20548;-55
2022/03/19 02:10:13;;;;;;;14.73;5.18;;;;;;;-0.57;51.40;99008.59;5005193;28;20050;-55
2022/03/19 02:12:41;;;;;;;17.27;5.97;;;;;;;-0.77;51.72;98991.97;5005576;28;20064;-58
2022/03/19 02:15:09;;;;;;;12.00;3.90;;;;;;;-0.36;51.59;99086.72;5024033;28;20085;-61
2022/03/19 02:17:36;;;;;;;13.50;5.80;;;;;;;-0.50;51.85;99058.22;5024620;28;20092;-56
2022/03/19 02:20:04;;;;;;;9.00;3.83;;;;;;;-0.27;51.25;99107.03;5023122;28;20062;-61
2022/03/19 02:22:32;;;;;;;14.60;5.00;;;;;;;-0.24;52.17;99106.53;5024965;28;20049;-61
2022/03/19 02:27:45;;;;;;;14.40;6.35;;;;;;;-0.28;52.72;99094.47;5024627;28;20060;-60
2022/03/19 02:30:15;;;;;;;13.93;5.68;;;;;;;-0.15;52.51;99099.56;5024181;28;20056;-55
2022/03/19 02:32:44;;;;;;;16.17;6.05;;;;;;;-0.25;52.96;99099.41;5024569;28;20053;-61
2022/03/19 02:35:11;;;;;;;14.35;5.30;;;;;;;-0.21;52.82;99092.41;5024419;28;20076;-58
2022/03/19 02:37:44;;;;;;;15.38;4.43;;;;;;;-0.37;52.38;99098.72;5024279;28;20423;-55
2022/03/19 02:40:13;;;;;;;23.38;7.40;;;;;;;-0.77;52.79;99027.34;5023108;28;20543;-61
2022/03/19 02:42:43;;;;;;;13.45;5.45;;;;;;;-0.76;52.50;99029.00;5023059;28;20516;-61
2022/03/19 02:45:10;;;;;;;11.73;4.70;;;;;;;-0.11;52.63;99095.25;5024071;28;20050;-62
2022/03/19 02:47:57;;;;;;;12.48;5.53;;;;;;;-0.14;51.61;99101.22;5024641;28;20053;-55
2022/03/19 02:50:28;;;;;;;15.52;6.28;;;;;;;-0.46;52.08;99060.19;5024452;28;20522;-56
2022/03/19 02:52:57;;;;;;;13.18;5.75;;;;;;;-0.06;52.95;99101.59;5022659;28;20053;-61
2022/03/19 02:55:24;;;;;;;11.05;5.35;;;;;;;0.05;52.04;99099.84;5024067;28;20055;-58
2022/03/19 02:57:51;;;;;;;14.65;6.75;;;;;;;0.09;51.40;99090.09;5023022;28;20054;-61
2022/03/19 03:00:19;;;;;;;11.45;5.47;;;;;;;0.17;51.96;99119.63;5022705;28;20574;-61
2022/03/19 03:02:45;;;;;;;15.60;5.82;;;;;;;0.26;51.67;99107.19;5023793;28;20065;-61
2022/03/19 03:05:12;;;;;;;17.67;6.22;;;;;;;0.02;51.44;99100.34;5023769;28;20050;-61
2022/03/19 03:07:40;;;;;;;13.18;5.35;;;;;;;0.14;52.12;99098.34;5023889;28;20533;-57
2022/03/19 03:10:07;;;;;;;14.50;6.35;;;;;;;-0.02;51.95;99100.00;5023646;28;20065;-56
2022/03/19 03:12:35;;;;;;;15.55;6.22;;;;;;;0.19;51.95;99095.66;5023983;28;20053;-55
2022/03/19 03:15:03;;;;;;;11.70;5.35;;;;;;;-0.09;51.17;99087.66;5003791;28;20054;-61
2022/03/19 03:17:30;;;;;;;13.13;5.28;;;;;;;-0.08;52.16;99090.13;5004150;28;20076;-60
2022/03/19 03:19:57;;;;;;;12.77;6.13;;;;;;;0.02;52.37;99100.34;5003906;28;20449;-55
2022/03/19 03:22:23;;;;;;;15.00;6.50;;;;;;;-0.23;52.28;99070.03;5003552;28;20065;-61
2022/03/19 03:24:50;;;;;;;15.75;6.10;;;;;;;-0.57;52.90;98959.63;5003840;28;20513;-61
2022/03/19 03:27:17;;;;;;;13.52;6.35;;;;;;;0.29;51.56;99093.06;5004159;28;20425;-55
2022/03/19 03:29:43;;;;;;;14.60;5.97;;;;;;;0.33;52.01;99093.38;5003592;28;20058;-62
2022/03/19 03:32:10;;;;;;;10.73;5.00;;;;;;;-0.02;51.51;99022.94;5003573;28;20054;-55
2022/03/19 03:34:38;;;;;;;14.45;5.68;;;;;;;0.39;51.33;99090.47;5004083;28;20054;-58
2022/03/19 03:37:04;;;;;;;16.35;6.47;;;;;;;-0.06;52.25;99005.44;5002546;28;20042;-55
2022/03/19 03:39:31;;;;;;;11.52;4.95;;;;;;;0.48;51.66;99088.94;5003674;28;20046;-61
2022/03/19 03:41:58;;;;;;;13.48;5.43;;;;;;;0.52;51.77;99090.03;5003847;28;20060;-55
2022/03/19 03:44:25;;;;;;;26.08;9.80;;;;;;;0.40;52.29;99092.09;5003948;28;20487;-60
2022/03/19 03:46:52;;;;;;;27.85;11.68;;;;;;;0.32;53.67;99062.56;5001728;28;20419;-61
2022/03/19 03:49:18;;;;;;;23.80;11.52;;;;;;;0.45;53.24;99077.69;5003844;28;20057;-55
2022/03/19 03:51:45;;;;;;;30.45;12.45;;;;;;;0.28;53.59;99072.34;5003961;28;20246;-55
2022/03/19 03:54:12;;;;;;;36.80;14.23;;;;;;;-0.19;54.65;99005.84;5018551;28;20049;-61
2022/03/19 03:56:39;;;;;;;29.52;10.90;;;;;;;0.35;55.07;99088.50;5018727;28;20069;-61
2022/03/19 03:59:06;;;;;;;26.30;11.50;;;;;;;0.22;55.59;99095.19;5003655;28;20058;-61
2022/03/19 04:01:32;;;;;;;27.30;10.45;;;;;;;0.16;55.17;99085.25;5003525;28;20058;-57
2022/03/19 04:03:59;;;;;;;20.45;10.35;;;;;;;0.23;54.30;99091.34;5003537;28;20053;-62
2022/03/19 04:06:26;;;;;;;24.80;11.23;;;;;;;0.13;55.37;99080.31;5007091;28;20053;-61
2022/03/19 04:08:53;;;;;;;51.95;18.50;;;;;;;0.17;55.41;99081.47;5007275;28;20054;-57
2022/03/19 04:11:19;;;;;;;37.40;16.40;;;;;;;0.20;56.16;99089.16;5006138;28;20500;-61
2022/03/19 04:13:46;;;;;;;32.72;14.23;;;;;;;0.20;56.32;99097.31;5007117;28;20053;-61
2022/03/19 04:16:13;;;;;;;41.70;16.05;;;;;;;0.20;56.68;99080.97;5007015;28;20062;-61
2022/03/19 04:18:40;;;;;;;45.42;16.63;;;;;;;0.20;57.58;99091.88;5006995;28;20062;-61
2022/03/19 04:21:07;;;;;;;32.90;13.05;;;;;;;-0.33;57.32;99037.22;5006907;28;20060;-58
2022/03/19 04:23:34;;;;;;;31.17;11.98;;;;;;;-0.03;57.32;99062.13;5007293;28;20053;-61
2022/03/19 04:26:02;;;;;;;36.42;12.48;;;;;;;0.28;56.73;99091.44;5007145;28;20072;-56
2022/03/19 04:28:28;;;;;;;45.95;17.40;;;;;;;0.08;57.28;99088.44;5007712;28;20050;-55
2022/03/19 04:30:55;;;;;;;36.03;16.05;;;;;;;-0.20;57.17;99053.19;5006833;28;20057;-61
2022/03/19 04:33:22;;;;;;;34.85;12.82;;;;;;;-0.37;56.18;99036.09;5007079;28;20049;-56
2022/03/19 04:38:34;;;;;;;59.35;19.35;;;;;;;0.13;56.62;99095.88;5006913;28;20053;-56
2022/03/19 04:41:01;;;;;;;35.13;13.73;;;;;;;0.07;56.55;99092.25;5006658;28;20065;-55
2022/03/19 04:43:27;;;;;;;37.53;14.20;;;;;;;-0.38;57.03;99056.25;5006725;28;20529;-58
2022/03/19 04:45:54;;;;;;;29.83;13.25;;;;;;;0.01;57.24;99093.25;5006697;28;20050;-61
2022/03/19 04:48:21;;;;;;;27.35;11.98;;;;;;;-0.01;56.17;99092.69;5006936;28;20119;-62
2022/03/19 04:50:48;;;;;;;46.97;17.67;;;;;;;0.17;56.33;99119.63;5006268;28;20060;-55
2022/03/19 04:53:15;;;;;;;55.05;20.13;;;;;;;0.15;55.72;99099.97;5006357;28;20440;-62
2022/03/19 04:55:42;;;;;;;83.40;27.90;;;;;;;0.18;55.39;99099.47;5006399;28;20077;-55
2022/03/19 04:58:09;;;;;;;27.10;12.00;;;;;;;0.05;51.72;99102.56;5005783;28;20089;-56
2022/03/19 05:00:36;;;;;;;29.27;12.23;;;;;;;-0.01;54.23;99100.84;5006171;28;20053;-61
2022/03/19 05:03:06;;;;;;;39.08;14.60;;;;;;;0.30;53.90;99102.88;5006241;28;20061;-60
2022/03/19 05:05:33;;;;;;;34.58;13.55;;;;;;;0.48;53.02;99097.09;5006739;28;20069;-61
2022/03/19 05:08:00;;;;;;;30.60;12.85;;;;;;;0.33;52.90;99047.88;5004962;28;20052;-61
2022/03/19 05:13:12;;;;;;;23.38;11.13;;;;;;;0.80;51.37;99089.81;5009764;28;20494;-56
2022/03/19 05:15:39;;;;;;;14.85;6.97;;;;;;;0.83;50.21;99092.03;5025366;28;20057;-56
2022/03/19 05:18:05;;;;;;;24.65;9.73;;;;;;;0.99;50.26;99090.28;5024837;28;20133;-62
2022/03/19 05:20:34;;;;;;;17.90;7.43;;;;;;;1.20;49.01;99092.91;5025703;28;20057;-62
2022/03/19 05:23:03;;;;;;;10.00;5.70;;;;;;;0.77;48.80;99071.25;5025437;28;20054;-61
2022/03/19 05:25:30;;;;;;;15.25;6.70;;;;;;;0.79;48.92;99041.78;5025428;28;20262;-56
2022/03/19 05:27:57;;;;;;;13.00;6.63;;;;;;;0.68;48.29;99007.31;5026101;28;20551;-56
2022/03/19 05:30:24;;;;;;;18.85;7.18;;;;;;;1.18;48.05;99089.66;5024499;28;20055;-57
2022/03/19 05:32:51;;;;;;;14.38;6.15;;;;;;;1.22;47.31;99041.63;5025658;28;20049;-61
2022/03/19 05:35:18;;;;;;;14.10;6.18;;;;;;;1.84;45.96;99087.38;5025306;28;20049;-61
2022/03/19 05:37:47;;;;;;;13.20;5.88;;;;;;;1.83;46.27;99091.19;5025271;28;20538;-61
2022/03/19 05:40:14;;;;;;;8.73;3.70;;;;;;;0.81;46.79;99028.72;5024773;28;20491;-56
2022/03/19 05:42:42;;;;;;;12.38;5.55;;;;;;;1.55;47.07;99095.94;5024030;28;20084;-56
2022/03/19 05:45:15;;;;;;;4.18;1.67;;;;;;;0.84;46.85;99041.84;5025119;28;20230;-62
2022/03/19 05:47:43;;;;;;;17.42;5.90;;;;;;;1.41;47.18;99100.19;5025534;28;20107;-57
2022/03/19 05:50:10;;;;;;;14.85;5.10;;;;;;;0.60;47.08;98971.56;5025679;28;20329;-61
2022/03/19 05:52:37;;;;;;;20.20;6.38;;;;;;;0.80;44.95;98994.38;5025596;28;20523;-62
2022/03/19 05:55:04;;;;;;;12.98;5.93;;;;;;;1.77;44.11;99095.00;5023803;28;20065;-60
2022/03/19 05:57:31;;;;;;;13.75;5.40;;;;;;;1.68;44.14;99093.81;5025142;28;20049;-58
2022/03/19 05:59:58;;;;;;;11.50;4.57;;;;;;;1.37;44.32;99109.16;5024935;28;20060;-55
2022/03/19 06:02:24;;;;;;;17.83;5.38;;;;;;;2.07;44.10;99097.91;5024453;28;20049;-61
2022/03/19 06:04:52;;;;;;;16.67;4.97;;;;;;;1.96;43.90;99093.47;5024838;28;20057;-62
2022/03/19 06:07:20;;;;;;;10.43;4.72;;;;;;;1.50;44.73;99087.69;5025285;28;20564;-61
2022/03/19 06:09:47;;;;;;;10.95;5.00;;;;;;;1.12;44.88;99022.44;5024503;28;20061;-56
2022/03/19 06:12:13;;;;;;;11.73;4.55;;;;;;;0.75;45.45;99046.13;5023674;28;20057;-60
2022/03/19 06:14:40;;;;;;;12.10;4.40;;;;;;;1.31;44.87;99100.09;5009206;28;20057;-61
2022/03/19 06:17:07;;;;;;;14.02;4.45;;;;;;;1.52;44.81;99080.06;5004781;28;20140;-61
2022/03/19 06:19:34;;;;;;;10.10;5.00;;;;;;;0.97;45.08;98962.31;5004971;28;20624;-60
2022/03/19 06:22:00;;;;;;;8.15;4.10;;;;;;;1.48;45.19;99089.88;5004629;28;20045;-61
2022/03/19 06:24:27;;;;;;;11.82;4.22;;;;;;;1.01;44.71;98996.16;5004804;28;20053;-61
2022/03/19 06:26:54;;;;;;;8.85;3.88;;;;;;;1.54;44.85;99083.38;5003103;28;20042;-56
2022/03/19 06:29:22;;;;;;;19.75;6.15;;;;;;;1.80;44.51;99097.19;5003002;28;20053;-59
2022/03/19 06:31:49;;;;;;;9.18;4.07;;;;;;;1.32;44.73;99074.47;5004625;28;20159;-60
2022/03/19 06:34:16;;;;;;;8.27;3.50;;;;;;;1.67;44.66;99095.75;5004709;28;20054;-60
2022/03/19 06:39:28;;;;;;;11.82;4.38;;;;;;;1.91;44.68;99098.91;5004304;28;20064;-57
2022/03/19 06:41:55;;;;;;;20.02;4.82;;;;;;;1.83;44.27;99069.34;5004196;28;20060;-55
2022/03/19 06:44:22;;;;;;;9.05;3.75;;;;;;;2.26;43.46;99091.69;5004343;28;20100;-56
2022/03/19 06:46:49;;;;;;;11.95;4.88;;;;;;;2.17;44.21;99068.69;5004329;28;20406;-61
2022/03/19 06:49:16;;;;;;;9.85;3.75;;;;;;;1.84;44.64;99079.16;5004320;28;20552;-58
2022/03/19 06:51:42;;;;;;;13.88;5.30;;;;;;;2.21;43.89;99102.63;5004435;28;20066;-55
2022/03/19 06:54:09;;;;;;;8.82;3.80;;;;;;;1.82;43.61;99056.78;5003878;28;20060;-57
2022/03/19 06:56:36;;;;;;;4.22;2.38;;;;;;;1.82;44.21;99084.09;5002785;28;20136;-60
2022/03/19 06:59:03;;;;;;;10.20;5.20;;;;;;;1.54;44.83;99031.47;5004020;28;20054;-55
2022/03/19 07:01:30;;;;;;;6.53;3.15;;;;;;;2.00;44.95;99110.97;5002596;28;20062;-58
2022/03/19 07:03:57;;;;;;;11.63;3.67;;;;;;;2.10;44.50;99102.84;5004253;28;20077;-61
2022/03/19 07:06:24;;;;;;;14.02;5.13;;;;;;;1.81;44.57;98984.06;5003806;28;20054;-55
2022/03/19 07:09:10;;;;;;;16.75;5.18;;;;;;;2.07;44.68;99086.97;5003842;28;20128;-55
2022/03/19 07:11:37;;;;;;;11.25;4.63;;;;;;;1.24;44.74;99027.72;5004272;28;20050;-58
2022/03/19 07:14:07;;;;;;;8.00;3.45;;;;;;;1.74;44.87;99100.97;4984118;28;20403;-61
2022/03/19 07:16:34;;;;;;;10.73;4.05;;;;;;;1.43;44.64;99040.69;5023605;28;20136;-61
2022/03/19 07:19:01;;;;;;;14.77;4.93;;;;;;;1.65;45.96;99099.81;5022098;28;20050;-63
2022/03/19 07:21:27;;;;;;;9.07;4.50;;;;;;;1.90;44.58;99100.78;5023250;28;20057;-60
2022/03/19 07:23:54;;;;;;;9.25;3.55;;;;;;;1.91;44.88;99094.28;5022248;28;20061;-60
2022/03/19 07:26:21;;;;;;;12.52;3.55;;;;;;;2.21;45.67;99088.13;5023715;28;20580;-55
2022/03/19 07:28:47;;;;;;;7.63;1.73;;;;;;;2.00;45.57;99097.31;5021941;28;20425;-62
2022/03/19 07:31:15;;;;;;;7.38;3.83;;;;;;;1.93;45.42;99085.81;5023330;28;20587;-55
2022/03/19 07:33:42;;;;;;;13.88;3.78;;;;;;;1.89;44.79;99092.88;5023230;28;20532;-61
2022/03/19 07:36:09;;;;;;;10.05;2.30;;;;;;;1.82;44.81;99095.03;5023538;28;20144;-61
2022/03/19 07:38:35;;;;;;;11.85;3.33;;;;;;;1.73;45.47;99096.59;5023536;28;20045;-61
2022/03/19 07:43:48;;;;;;;14.75;6.10;;;;;;;1.87;44.03;99034.91;5024085;28;20053;-60
2022/03/19 07:46:15;;;;;;;10.27;4.20;;;;;;;2.21;43.61;99072.56;5023247;28;20140;-56
2022/03/19 07:48:41;;;;;;;12.05;5.10;;;;;;;2.42;44.01;99095.34;5023549;28;20057;-61
2022/03/19 07:51:09;;;;;;;10.52;4.88;;;;;;;2.59;44.14;99095.94;5022821;28;20623;-58
2022/03/19 07:53:37;;;;;;;5.07;3.33;;;;;;;2.31;43.61;99099.13;5023441;28;20053;-56
2022/03/19 07:56:04;;;;;;;8.85;3.60;;;;;;;1.78;44.09;99014.66;5021585;28;20423;-55
2022/03/19 07:58:30;;;;;;;12.05;4.57;;;;;;;2.16;43.42;99074.44;5022161;28;20045;-61
2022/03/19 08:00:57;;;;;;;8.02;3.33;;;;;;;2.28;43.23;99050.41;5021688;28;20058;-54
2022/03/19 08:03:24;;;;;;;11.13;4.70;;;;;;;2.61;43.46;99080.06;5023297;28;20065;-56
2022/03/19 08:05:51;;;;;;;8.98;4.25;;;;;;;2.40;42.97;99102.97;5022512;28;20496;-55
2022/03/19 08:08:17;;;;;;;9.38;3.00;;;;;;;1.91;43.08;99098.91;5023010;28;20056;-55
2022/03/19 08:10:45;;;;;;;12.32;5.20;;;;;;;1.63;43.46;99041.91;5023073;28;20523;-61
2022/03/19 08:13:12;;;;;;;7.45;3.05;;;;;;;1.73;43.68;99041.94;5019938;28;20125;-62
2022/03/19 08:15:40;;;;;;;10.57;5.05;;;;;;;2.33;45.00;99094.19;5003419;28;20058;-55
2022/03/19 08:18:09;;;;;;;12.10;4.90;;;;;;;2.48;45.08;99092.31;5002075;28;20089;-56
2022/03/19 08:20:37;;;;;;;7.20;3.60;;;;;;;2.17;43.87;99097.94;5003808;28;20433;-60
2022/03/19 08:23:03;;;;;;;7.93;4.47;;;;;;;1.75;44.48;99099.88;5001834;28;20058;-54
2022/03/19 08:25:31;;;;;;;9.05;4.30;;;;;;;1.85;44.82;99097.22;5003417;28;20056;-60
2022/03/19 08:27:58;;;;;;;7.43;3.08;;;;;;;1.74;45.52;99103.72;5003110;28;20045;-56
2022/03/19 08:30:31;;;;;;;12.05;5.53;;;;;;;1.61;44.94;99030.41;5001911;28;20077;-60
2022/03/19 08:32:58;;;;;;;7.95;3.72;;;;;;;1.90;44.90;99102.72;5003103;28;20056;-59
2022/03/19 08:35:24;;;;;;;6.40;2.88;;;;;;;2.15;45.20;99105.59;5003081;28;20057;-55
2022/03/19 08:40:15;;;;;;;6.10;3.03;;;;;;;2.21;45.94;99093.59;5003471;28;20056;-54
2022/03/19 08:40:40;;;;;;;9.68;4.40;;;;;;;1.72;45.54;99073.09;5003003;28;20242;-59
2022/03/19 08:43:07;;;;;;;13.40;4.93;;;;;;;1.69;45.83;99106.41;5003177;28;20057;-58
2022/03/19 08:45:34;;;;;;;12.57;5.50;;;;;;;2.16;45.50;99101.75;5001890;28;20056;-54
2022/03/19 08:48:01;;;;;;;10.05;4.65;;;;;;;1.64;44.93;99011.59;5003226;28;20091;-59
2022/03/19 08:50:28;;;;;;;13.68;4.55;;;;;;;2.03;45.47;99107.69;5003146;28;20141;-59
2022/03/19 08:52:55;;;;;;;14.63;5.10;;;;;;;1.90;44.45;99037.16;5003957;28;20053;-63
2022/03/19 08:55:22;;;;;;;15.50;6.50;;;;;;;2.41;44.87;99107.34;5021652;28;20049;-60
2022/03/19 08:57:49;;;;;;;8.77;4.10;;;;;;;1.93;44.68;99107.66;5005382;28;20057;-61
2022/03/19 09:00:16;;;;;;;16.13;5.28;;;;;;;1.99;45.07;99106.59;5005173;28;20073;-60
2022/03/19 09:02:43;;;;;;;8.82;4.97;;;;;;;2.14;44.69;99112.13;5005250;28;20552;-54
2022/03/19 09:05:10;;;;;;;12.45;5.78;;;;;;;2.01;44.92;99093.50;5006654;28;20220;-60
2022/03/19 09:07:37;;;;;;;15.38;6.10;;;;;;;1.95;44.48;99028.94;5005088;28;20049;-60
2022/03/19 09:10:04;;;;;;;15.38;5.72;;;;;;;2.30;44.42;99102.91;5021215;28;20060;-60
2022/03/19 09:12:36;;;;;;;12.52;4.68;;;;;;;2.60;44.51;99108.50;5006271;28;20085;-55
2022/03/19 09:15:04;;;;;;;21.23;7.75;;;;;;;2.25;44.27;99111.09;5024829;28;20133;-56
2022/03/19 09:17:31;;;;;;;12.68;5.32;;;;;;;2.22;44.09;99049.59;5024715;28;20057;-61
2022/03/19 09:19:57;;;;;;;6.05;3.05;;;;;;;2.30;43.66;99102.91;5025954;28;20051;-61
2022/03/19 09:22:24;;;;;;;12.40;5.75;;;;;;;2.03;44.49;99104.97;5024035;28;20053;-55
2022/03/19 09:24:51;;;;;;;8.85;3.80;;;;;;;1.73;44.57;99053.72;5025537;28;20137;-56
2022/03/19 09:27:17;;;;;;;7.00;3.83;;;;;;;1.72;44.04;99103.16;5023781;28;20060;-62
2022/03/19 09:29:44;;;;;;;8.88;4.10;;;;;;;1.92;43.75;99100.53;5025320;28;20053;-55
2022/03/19 09:32:12;;;;;;;6.90;2.55;;;;;;;1.76;44.03;99052.34;5025226;28;20049;-57
2022/03/19 09:34:40;;;;;;;12.77;4.78;;;;;;;2.46;43.41;99107.38;5025545;28;20060;-61
2022/03/19 09:37:07;;;;;;;10.02;5.25;;;;;;;2.73;43.76;99110.75;5025499;28;20343;-61
2022/03/19 09:39:34;;;;;;;9.80;4.53;;;;;;;2.94;42.79;99112.44;5025380;28;20155;-59
2022/03/19 09:42:02;;;;;;;13.40;5.03;;;;;;;2.14;43.03;99093.00;5025089;28;20111;-56
2022/03/19 09:44:30;;;;;;;8.20;3.35;;;;;;;2.54;43.56;99072.13;5023656;28;20537;-56
2022/03/19 09:46:57;;;;;;;9.13;3.45;;;;;;;1.78;42.28;98992.81;5025045;28;20103;-56
2022/03/19 09:49:24;;;;;;;6.55;3.38;;;;;;;2.71;42.92;99104.72;5025228;28;20045;-55
2022/03/19 09:51:53;;;;;;;7.25;3.17;;;;;;;2.79;42.98;99113.22;5024958;28;20045;-61
2022/03/19 09:54:22;;;;;;;7.20;3.67;;;;;;;2.71;42.05;99121.13;5025389;28;20111;-55
2022/03/19 09:56:49;;;;;;;11.95;4.57;;;;;;;2.51;43.74;99116.41;5025192;28;20498;-61
2022/03/19 09:59:16;;;;;;;8.55;3.38;;;;;;;2.45;42.23;99111.19;5025194;28;20053;-56
2022/03/19 10:01:45;;;;;;;7.18;2.78;;;;;;;2.57;42.74;99109.06;5024717;28;20053;-57
2022/03/19 10:04:15;;;;;;;10.07;3.85;;;;;;;2.71;42.32;99126.59;5024642;28;20702;-60
2022/03/19 10:09:45;;;;;;;7.68;3.00;;;;;;;2.67;41.70;99021.53;5025182;28;20049;-60
2022/03/19 10:12:17;;;;;;;9.25;4.25;;;;;;;2.87;41.47;99021.56;5023617;28;20049;-60
2022/03/19 10:14:56;;;;;;;9.75;3.92;;;;;;;2.70;41.42;99018.25;5019930;28;20419;-60
2022/03/19 10:17:31;;;;;;;11.35;4.10;;;;;;;3.15;42.25;99102.34;5004952;28;20057;-62
2022/03/19 10:20:04;;;;;;;4.28;3.00;;;;;;;2.68;42.29;99105.25;5004098;28;20500;-62
2022/03/19 10:22:31;;;;;;;7.82;3.63;;;;;;;3.28;42.16;99113.59;5004961;28;20057;-56
2022/03/19 10:25:07;;;;;;;4.25;1.70;;;;;;;3.04;41.77;99101.50;5005056;28;20054;-61
2022/03/19 10:27:36;;;;;;;7.03;2.67;;;;;;;3.09;42.41;99096.03;5002926;28;20135;-62
2022/03/19 10:30:07;;;;;;;8.88;4.25;;;;;;;3.87;41.48;99103.66;5004501;28;20436;-62
2022/03/19 10:32:35;;;;;;;5.53;1.58;;;;;;;3.78;41.60;99102.59;5004916;28;20060;-55
2022/03/19 10:35:03;;;;;;;5.13;2.72;;;;;;;3.97;41.78;99103.66;5004657;28;20064;-61
2022/03/19 10:37:40;;;;;;;5.25;2.65;;;;;;;3.56;41.63;99113.03;5003882;28;20058;-62
2022/03/19 10:40:09;;;;;;;8.45;4.07;;;;;;;3.32;41.80;99024.28;5004823;28;20512;-62
2022/03/19 10:42:41;;;;;;;6.43;3.47;;;;;;;3.38;41.99;99094.44;5002923;28;20049;-62
2022/03/19 10:45:10;;;;;;;11.25;3.10;;;;;;;3.05;42.60;99027.31;5003061;28;20050;-61
2022/03/19 10:47:44;;;;;;;8.25;3.53;;;;;;;4.20;41.51;99091.28;5004532;28;20064;-58
2022/03/19 10:50:16;;;;;;;7.45;2.63;;;;;;;3.62;41.12;99057.13;5004148;28;20064;-56
2022/03/19 10:52:43;;;;;;;3.97;2.13;;;;;;;3.62;42.72;99100.16;5004385;28;20520;-56
2022/03/19 10:55:11;;;;;;;7.07;3.53;;;;;;;3.35;43.06;99066.75;5004489;28;20054;-56
2022/03/19 10:57:38;;;;;;;7.97;4.03;;;;;;;3.04;43.24;99000.22;5004534;28;20444;-62
2022/03/19 11:00:05;;;;;;;7.25;3.85;;;;;;;3.33;43.91;99080.72;5002800;28;20078;-63
2022/03/19 11:02:32;;;;;;;6.82;3.05;;;;;;;2.56;44.01;99015.22;5004615;28;20065;-55
2022/03/19 11:05:00;;;;;;;11.98;3.50;;;;;;;2.65;45.00;99083.91;5004330;28;20089;-58
2022/03/19 11:07:32;;;;;;;8.63;4.07;;;;;;;2.97;44.82;99070.84;5004485;28;20057;-62
2022/03/19 11:10:01;;;;;;;12.25;4.45;;;;;;;2.22;44.56;98934.75;5004525;28;20647;-62
2022/03/19 11:12:32;;;;;;;15.98;5.90;;;;;;;3.38;44.55;99068.94;5003720;28;20049;-62
2022/03/19 11:15:02;;;;;;;5.60;3.10;;;;;;;3.75;42.50;99083.13;5003204;28;20081;-60
2022/03/19 11:17:33;;;;;;;5.07;2.65;;;;;;;3.53;41.89;99074.41;5003707;28;20054;-61
2022/03/19 11:20:06;;;;;;;7.78;3.58;;;;;;;3.52;42.59;99054.41;5004171;28;20053;-58
2022/03/19 11:22:40;;;;;;;;;;;;;;;3.43;42.71;99074.44;5004104;28;20059;-62
2022/03/19 11:25:13;;;;;;;10.63;4.72;;;;;;;3.20;44.44;99070.31;5003978;28;20367;-62
2022/03/19 11:27:43;;;;;;;8.82;4.10;;;;;;;3.06;43.06;99080.16;5003735;28;20065;-62
2022/03/19 11:30:16;;;;;;;9.15;4.32;;;;;;;2.96;44.16;99066.44;5003011;28;20568;-56
2022/03/19 11:33:01;;;;;;;8.80;3.28;;;;;;;2.98;43.91;99056.06;5003648;28;20050;-56
2022/03/19 11:35:28;;;;;;;7.82;3.08;;;;;;;3.58;43.33;99056.06;5002466;28;20050;-56
2022/03/19 11:38:04;;;;;;;7.80;2.83;;;;;;;3.41;43.29;99066.47;5003702;28;20057;-56
2022/03/19 11:40:36;;;;;;;26.40;6.85;;;;;;;3.03;43.25;99053.31;5003787;28;20541;-62
2022/03/19 11:43:35;;;;;;;6.20;3.22;;;;;;;2.66;44.92;98943.28;5002525;28;20049;-62
2022/03/19 11:46:09;;;;;;;9.52;3.63;;;;;;;3.57;43.84;99056.31;5002312;28;20206;-56
2022/03/19 11:48:37;;;;;;;6.93;3.10;;;;;;;3.84;43.62;99046.66;5002488;28;20088;-62
2022/03/19 11:51:19;;;;;;;7.55;2.88;;;;;;;4.30;40.70;99048.16;5003777;28;20050;-54
2022/03/19 11:53:55;;;;;;;8.45;3.72;;;;;;;4.82;41.12;99044.06;5003543;28;20056;-56
2022/03/19 11:56:27;;;;;;;10.32;3.13;;;;;;;4.09;40.32;99029.34;5003429;28;20051;-62